Date,TemperatureHighF,TemperatureAvgF,TemperatureLowF,DewpointHighF,DewpointAvgF,DewpointLowF,HumidityHigh,HumidityAvg,HumidityLow,PressureMaxIn,PressureMinIn,WindSpeedMaxMPH,WindSpeedAvgMPH,GustSpeedMaxMPH,PrecipitationSumIn
2013-1-1,56.0,52.5,49.0,48.0,42.1,34.0,79,68,51,30.14,30.08,7,2,8,0.00
2013-1-2,58.0,53.7,51.0,51.0,47.3,44.0,89,79,68,30.25,30.05,17,6,17,0.41
2013-1-3,62.0,55.8,50.0,48.0,43.9,42.0,79,64,55,30.46,30.24,9,4,10,0.02
2013-1-4,57.0,53.0,50.0,48.0,45.3,42.0,85,75,65,30.45,30.25,7,3,8,0.00
2013-1-5,56.0,51.8,49.0,49.0,46.0,43.0,87,81,72,30.26,30.06,7,2,9,0.00
2013-1-6,60.0,55.4,49.0,50.0,43.7,37.0,84,66,45,30.18,30.06,17,5,19,0.00
2013-1-7,63.0,55.6,49.0,51.0,45.1,38.0,89,69,41,30.22,30.03,8,3,10,0.00
2013-1-8,57.0,52.7,48.0,47.0,40.4,35.0,80,63,51,30.27,30.19,8,2,10,0.00
2013-1-9,57.0,54.2,52.0,49.0,46.6,43.0,81,76,65,30.19,30.10,5,2,7,0.00
2013-1-10,56.0,53.6,51.0,51.0,47.3,44.0,93,80,67,30.11,29.80,13,3,16,0.07
2013-1-11,57.0,53.4,49.0,51.0,47.3,41.0,93,80,58,29.84,29.72,21,6,28,0.13
2013-1-12,57.0,51.8,47.0,48.0,43.9,40.0,86,75,66,30.04,29.78,9,2,16,0.06
2013-1-13,58.0,55.5,52.0,54.0,48.0,42.0,92,76,62,30.03,29.84,22,9,26,0.25
2013-1-14,58.0,55.0,49.0,53.0,49.0,44.0,88,80,73,29.92,29.79,22,11,25,0.31
2013-1-15,55.0,50.2,44.0,48.0,44.4,41.0,90,81,64,29.91,29.63,17,3,17,0.07
2013-1-16,54.0,47.6,42.0,46.0,39.9,35.0,88,75,57,29.63,29.46,23,8,32,0.54
2013-1-17,53.0,48.5,42.0,49.0,43.5,38.0,95,84,63,29.49,29.29,16,3,20,0.72
2013-1-18,48.0,43.8,39.0,41.0,38.6,36.0,91,82,72,29.58,29.28,14,5,17,0.29
2013-1-19,56.0,47.4,43.0,52.0,41.0,33.0,92,79,64,29.66,29.57,18,6,23,0.15
2013-1-20,61.0,58.6,55.0,56.0,54.7,52.0,93,87,81,29.58,29.46,17,8,25,0.20
2013-1-21,56.0,52.9,50.0,53.0,48.5,43.0,94,85,66,29.57,29.34,23,6,27,0.67
2013-1-22,55.0,51.5,47.0,49.0,43.5,38.0,91,75,53,29.80,29.55,28,8,31,0.87
2013-1-23,55.0,49.7,44.0,48.0,44.6,41.0,93,83,73,29.81,29.58,20,6,24,1.05
2013-1-24,52.0,48.7,46.0,49.0,45.1,43.0,92,87,81,29.58,29.36,8,3,11,0.53
2013-1-25,54.0,49.2,45.0,45.0,39.6,35.0,88,70,55,29.59,29.38,15,6,20,0.03
2013-1-26,49.0,46.4,42.0,36.0,33.0,30.0,72,60,54,29.82,29.58,13,5,16,0.00
2013-1-27,53.0,47.5,42.0,41.0,33.9,29.0,72,60,45,29.97,29.82,14,4,17,0.00
2013-1-28,53.0,49.2,48.0,44.0,41.5,39.0,85,75,66,29.97,29.84,12,4,17,0.16
2013-1-29,58.0,51.5,47.0,47.0,41.6,37.0,84,69,55,30.21,29.97,15,5,17,0.09
2013-1-30,58.0,53.3,50.0,52.0,47.9,44.0,89,82,74,30.21,30.14,8,2,11,0.00
2013-1-31,60.0,55.4,53.0,53.0,51.0,49.0,92,85,75,30.19,30.09,7,2,10,0.00